createdAt,value
2022-12-25T00:01:43.203Z,21.40
2022-12-25T00:06:45.989Z,20.00
2022-12-25T00:11:48.798Z,21.00
2022-12-25T00:16:52.369Z,19.90
2022-12-25T00:21:55.079Z,20.60
2022-12-25T00:26:57.839Z,20.20
2022-12-25T00:32:01.181Z,20.10
2022-12-25T00:37:04.051Z,20.70
2022-12-25T00:42:18.717Z,21.20
2022-12-25T00:47:21.974Z,21.00
2022-12-25T00:52:24.901Z,22.30
2022-12-25T00:57:27.766Z,20.60
2022-12-25T01:02:30.635Z,18.20
2022-12-25T01:07:33.717Z,18.40
2022-12-25T01:12:40.108Z,17.50
2022-12-25T01:17:44.442Z,16.00
2022-12-25T01:22:47.169Z,16.00
2022-12-25T01:27:50.316Z,16.00
2022-12-25T01:32:53.447Z,15.20
2022-12-25T01:37:56.214Z,15.90
2022-12-25T01:42:58.985Z,15.70
2022-12-25T01:48:06.364Z,15.70
2022-12-25T01:53:09.191Z,14.90
2022-12-25T01:58:12.071Z,15.10
2022-12-25T02:03:14.967Z,14.20
2022-12-25T02:08:20.700Z,14.20
2022-12-25T02:13:23.426Z,14.80
2022-12-25T02:18:56.870Z,13.20
2022-12-25T02:24:37.064Z,14.20
2022-12-25T02:30:10.403Z,13.90
2022-12-25T02:35:28.504Z,14.60
2022-12-25T02:40:57.634Z,14.40
2022-12-25T02:46:23.403Z,13.80
2022-12-25T02:51:48.399Z,14.90
2022-12-25T02:57:09.957Z,15.70
2022-12-25T03:02:33.101Z,15.50
2022-12-25T03:07:37.686Z,14.90
2022-12-25T03:12:54.074Z,15.20
2022-12-25T03:17:59.455Z,16.20
2022-12-25T03:23:23.352Z,16.30
2022-12-25T03:28:27.736Z,15.80
2022-12-25T03:34:23.985Z,15.60
2022-12-25T03:39:49.540Z,15.30
2022-12-25T03:45:58.257Z,17.70
2022-12-25T03:51:25.127Z,17.80
2022-12-25T03:56:47.076Z,16.70
2022-12-25T04:02:09.398Z,18.10
2022-12-25T04:07:30.774Z,16.90
2022-12-25T04:12:52.220Z,18.40
2022-12-25T04:18:14.030Z,18.50
2022-12-25T04:23:35.368Z,18.00
2022-12-25T04:28:56.709Z,18.00
2022-12-25T04:34:18.295Z,17.90
2022-12-25T04:39:21.026Z,18.90
2022-12-25T04:44:23.762Z,19.30
2022-12-25T04:49:28.455Z,18.60
2022-12-25T04:54:31.233Z,18.20
2022-12-25T04:59:33.998Z,18.00
2022-12-25T05:04:36.773Z,19.20
2022-12-25T05:09:42.423Z,19.00
2022-12-25T05:14:45.210Z,19.60
2022-12-25T05:19:48.027Z,20.60
2022-12-25T05:24:50.822Z,20.00
2022-12-25T05:29:53.615Z,19.90
2022-12-25T05:34:56.310Z,20.50
2022-12-25T05:39:59.214Z,21.00
2022-12-25T05:45:02.139Z,21.80
2022-12-25T05:50:05.728Z,20.90
2022-12-25T05:55:08.763Z,21.10
2022-12-25T06:00:12.189Z,21.80
2022-12-25T06:05:15.464Z,20.10
2022-12-25T06:10:18.736Z,21.60
2022-12-25T06:15:21.630Z,21.50
2022-12-25T06:20:24.392Z,21.50
2022-12-25T06:25:27.180Z,22.20
2022-12-25T06:30:30.018Z,21.90
2022-12-25T06:35:32.999Z,20.50
2022-12-25T06:40:35.743Z,21.10
2022-12-25T06:45:38.718Z,21.40
2022-12-25T06:50:44.696Z,21.60
2022-12-25T06:55:47.689Z,20.80
2022-12-25T07:00:50.537Z,21.70
2022-12-25T07:05:53.343Z,20.40
2022-12-25T07:10:56.631Z,20.80
2022-12-25T07:16:00.448Z,20.10
2022-12-25T07:21:11.720Z,21.40
2022-12-25T07:26:15.037Z,22.00
2022-12-25T07:31:18.215Z,21.60
2022-12-25T07:36:21.153Z,21.40
2022-12-25T07:41:23.999Z,23.10
2022-12-25T07:46:28.615Z,22.30
2022-12-25T07:51:31.508Z,22.80
2022-12-25T07:56:34.240Z,24.20
2022-12-25T08:01:37.224Z,19.70
2022-12-25T08:06:40.793Z,20.40
2022-12-25T08:11:47.400Z,21.00
2022-12-25T08:16:50.281Z,19.60
2022-12-25T08:21:54.409Z,20.60
2022-12-25T08:26:57.145Z,18.70
2022-12-25T08:32:00.845Z,18.30
2022-12-25T08:37:03.698Z,19.60
2022-12-25T08:42:06.447Z,20.20
2022-12-25T08:47:09.937Z,18.90
2022-12-25T08:52:12.733Z,21.00
2022-12-25T08:57:15.526Z,19.90
2022-12-25T09:02:18.719Z,19.20
2022-12-25T09:07:21.694Z,19.70
2022-12-25T09:12:24.399Z,19.30
2022-12-25T09:17:29.605Z,16.10
2022-12-25T09:22:32.350Z,18.40
2022-12-25T09:27:35.131Z,17.50
2022-12-25T09:32:40.366Z,17.80
2022-12-25T09:37:45.820Z,18.60
2022-12-25T09:42:48.803Z,19.00
2022-12-25T09:47:51.567Z,18.50
2022-12-25T09:53:07.445Z,17.50
2022-12-25T09:58:12.822Z,18.60
2022-12-25T10:03:38.343Z,19.50
2022-12-25T10:09:35.863Z,18.80
2022-12-25T10:15:17.080Z,25.40
2022-12-25T10:20:42.093Z,20.30
2022-12-25T10:25:47.423Z,18.60
2022-12-25T10:31:19.912Z,18.50
2022-12-25T10:36:26.170Z,17.80
2022-12-25T10:41:44.922Z,18.40
2022-12-25T10:51:52.235Z,16.50
2022-12-25T10:57:01.206Z,16.30
2022-12-25T11:02:31.463Z,16.20
2022-12-25T11:07:46.695Z,15.30
2022-12-25T11:12:49.635Z,15.80
2022-12-25T11:17:52.480Z,16.70
2022-12-25T11:22:56.091Z,16.60
2022-12-25T11:28:04.077Z,15.50
2022-12-25T11:33:10.978Z,15.00
2022-12-25T11:38:13.710Z,16.50
2022-12-25T11:43:23.743Z,16.10
2022-12-25T11:48:31.820Z,15.60
2022-12-25T11:53:59.931Z,16.40
2022-12-25T11:59:20.779Z,18.10
2022-12-25T12:04:38.495Z,16.50
2022-12-25T12:10:15.190Z,16.00
2022-12-25T12:15:30.951Z,18.30
2022-12-25T12:20:35.039Z,16.50
2022-12-25T12:25:41.457Z,16.60
2022-12-25T12:30:44.320Z,17.80
2022-12-25T12:35:47.156Z,17.50
2022-12-25T12:41:04.183Z,17.20
2022-12-25T12:46:24.518Z,16.10
2022-12-25T12:51:33.147Z,15.40
2022-12-25T12:56:35.979Z,16.60
2022-12-25T13:01:47.893Z,15.80
2022-12-25T13:07:32.362Z,15.60
2022-12-25T13:12:35.206Z,16.10
2022-12-25T13:17:38.026Z,15.40
2022-12-25T13:22:40.877Z,16.20
2022-12-25T13:27:45.755Z,16.50
2022-12-25T13:32:49.406Z,17.20
2022-12-25T13:37:52.875Z,16.80
2022-12-25T13:42:59.733Z,17.30
2022-12-25T13:48:16.063Z,20.40
2022-12-25T13:53:18.857Z,20.40
2022-12-25T13:58:30.759Z,22.50
2022-12-25T14:03:39.492Z,20.50
2022-12-25T14:08:42.422Z,21.20
2022-12-25T14:13:45.154Z,21.60
2022-12-25T14:18:56.847Z,19.90
2022-12-25T14:23:59.561Z,21.70
2022-12-25T14:29:17.664Z,20.50
2022-12-25T14:34:23.094Z,21.30
2022-12-25T14:39:32.137Z,21.70
2022-12-25T14:44:38.977Z,22.60
2022-12-25T14:49:41.725Z,21.50
2022-12-25T14:54:54.426Z,22.30
2022-12-25T15:00:35.466Z,25.60
2022-12-25T15:05:39.176Z,24.20
2022-12-25T15:16:17.092Z,25.30
2022-12-25T15:21:28.407Z,24.90
2022-12-25T15:26:33.395Z,27.60
2022-12-25T15:31:37.880Z,30.60
2022-12-25T15:36:40.714Z,28.60
2022-12-25T15:42:02.382Z,29.20
2022-12-25T15:47:05.529Z,29.70
2022-12-25T15:52:10.734Z,29.00
2022-12-25T15:57:18.358Z,30.60
2022-12-25T16:02:21.444Z,30.00
2022-12-25T16:07:25.926Z,33.30
2022-12-25T16:12:28.715Z,31.70
2022-12-25T16:17:31.409Z,33.40
2022-12-25T16:22:39.893Z,34.70
2022-12-25T16:27:43.610Z,34.10
2022-12-25T16:32:49.242Z,33.30
2022-12-25T16:37:52.003Z,34.50
2022-12-25T16:42:55.704Z,35.60
2022-12-25T16:47:58.491Z,35.90
2022-12-25T16:53:01.280Z,35.10
2022-12-25T16:58:05.232Z,35.10
2022-12-25T17:03:08.110Z,34.30
2022-12-25T17:08:11.017Z,33.00
2022-12-25T17:13:13.756Z,32.50
2022-12-25T17:18:17.420Z,33.30
2022-12-25T17:23:20.757Z,32.40
2022-12-25T17:28:23.569Z,30.90
2022-12-25T17:33:26.400Z,34.60
2022-12-25T17:38:32.630Z,32.70
2022-12-25T17:43:37.275Z,34.70
2022-12-25T17:48:40.370Z,33.50
2022-12-25T17:53:45.915Z,33.00
2022-12-25T17:58:53.325Z,30.80
2022-12-25T18:03:56.166Z,31.10
2022-12-25T18:09:00.241Z,31.60
2022-12-25T18:14:04.021Z,31.50
2022-12-25T18:19:06.943Z,30.30
2022-12-25T18:24:09.830Z,29.20
2022-12-25T18:29:12.675Z,28.80
2022-12-25T18:34:15.737Z,30.70
2022-12-25T18:39:18.482Z,30.20
2022-12-25T18:44:21.291Z,28.20
2022-12-25T18:49:24.163Z,28.60
2022-12-25T18:54:28.042Z,29.80
2022-12-25T18:59:31.160Z,30.00
2022-12-25T19:04:33.907Z,28.90
2022-12-25T19:09:36.724Z,31.50
2022-12-25T19:14:47.218Z,28.00
2022-12-25T19:19:51.044Z,29.70
2022-12-25T19:24:53.867Z,30.00
2022-12-25T19:29:56.707Z,27.20
2022-12-25T19:35:04.381Z,26.50
2022-12-25T19:40:27.038Z,26.40
2022-12-25T19:45:29.873Z,24.80
2022-12-25T19:50:32.744Z,25.00
2022-12-25T19:55:36.448Z,26.00
2022-12-25T20:00:41.829Z,25.00
2022-12-25T20:05:45.517Z,26.60
2022-12-25T20:10:48.333Z,30.10
2022-12-25T20:15:51.311Z,29.10
2022-12-25T20:21:11.554Z,28.10
2022-12-25T20:26:15.174Z,26.30
2022-12-25T20:31:28.022Z,28.00
2022-12-25T20:36:36.356Z,26.90
2022-12-25T20:41:40.739Z,25.80
2022-12-25T20:46:44.326Z,24.60
2022-12-25T20:51:47.160Z,28.10
2022-12-25T20:56:49.891Z,24.70
2022-12-25T21:01:54.354Z,25.20
2022-12-25T21:06:57.276Z,25.60
2022-12-25T21:12:00.198Z,23.30
2022-12-25T21:17:03.099Z,23.20
2022-12-25T21:22:06.088Z,26.00
2022-12-25T21:27:09.087Z,24.70
2022-12-25T21:32:31.008Z,25.30
2022-12-25T21:37:33.772Z,27.30
2022-12-25T21:42:36.663Z,27.10
2022-12-25T21:48:02.294Z,27.40
2022-12-25T21:53:04.697Z,28.60
2022-12-25T21:58:07.452Z,27.20
2022-12-25T22:03:10.291Z,26.30
2022-12-25T22:08:13.119Z,27.70
2022-12-25T22:13:34.726Z,27.20
2022-12-25T22:18:56.376Z,27.10
2022-12-25T22:23:59.232Z,26.80
2022-12-25T22:29:02.833Z,27.60
2022-12-25T22:34:06.552Z,28.00
2022-12-25T22:39:09.371Z,27.20
2022-12-25T22:44:17.854Z,26.90
2022-12-25T22:49:21.717Z,29.20
2022-12-25T22:54:24.867Z,27.30
2022-12-25T22:59:27.632Z,25.70
2022-12-25T23:04:30.745Z,25.90
2022-12-25T23:09:33.558Z,25.40
2022-12-25T23:14:39.222Z,24.10
2022-12-25T23:20:00.540Z,24.40
2022-12-25T23:25:22.455Z,26.30
2022-12-25T23:30:25.267Z,24.10
2022-12-25T23:35:28.925Z,23.60
2022-12-25T23:40:31.889Z,23.60
2022-12-25T23:45:34.700Z,23.30
2022-12-25T23:50:37.605Z,22.70
2022-12-25T23:55:42.581Z,21.80
